createdAt,value
2019-02-27T00:00:39.765Z,49.9
2019-02-27T00:02:10.282Z,49.9
2019-02-27T00:03:40.787Z,49.9
2019-02-27T00:06:41.081Z,49.9
2019-02-27T00:08:12.351Z,50
2019-02-27T00:09:42.836Z,50
2019-02-27T00:10:55.880Z,50
2019-02-27T00:12:08.910Z,50.1
2019-02-27T00:13:39.041Z,50.1
2019-02-27T00:18:10.955Z,50.1
2019-02-27T00:22:42.491Z,50.3
2019-02-27T00:24:12.099Z,50.4
2019-02-27T00:25:43.515Z,50.4
2019-02-27T00:28:09.588Z,50.4
2019-02-27T00:35:42.135Z,50.5
2019-02-27T00:37:12.647Z,50.5
2019-02-27T00:41:44.193Z,50.6
2019-02-27T00:42:57.223Z,50.6
2019-02-27T00:45:40.771Z,50.6
2019-02-27T00:51:42.810Z,50.5
2019-02-27T00:54:43.084Z,50.5
2019-02-27T00:56:14.036Z,50.5
2019-02-27T00:57:44.862Z,50.6
2019-02-27T00:58:57.090Z,50.5
2019-02-27T01:00:10.939Z,50.6
2019-02-27T01:01:41.442Z,50.6
2019-02-27T01:04:42.462Z,50.7
2019-02-27T01:06:12.980Z,50.6
2019-02-27T01:13:45.539Z,50.6
2019-02-27T01:14:58.576Z,50.6
2019-02-27T01:16:11.610Z,50.6
2019-02-27T01:20:43.014Z,50.6
2019-02-27T01:23:44.167Z,50.6
2019-02-27T01:25:14.680Z,50.6
2019-02-27T01:26:45.192Z,50.6
2019-02-27T01:28:15.705Z,50.6
2019-02-27T01:30:59.260Z,50.6
2019-02-27T01:33:42.795Z,50.7
2019-02-27T01:38:14.337Z,50.7
2019-02-27T01:42:45.872Z,50.7
2019-02-27T01:44:16.389Z,50.8
2019-02-27T01:49:43.047Z,50.8
2019-02-27T01:52:44.503Z,50.9
2019-02-27T01:54:15.012Z,50.9
2019-02-27T01:57:16.054Z,50.9
2019-02-27T02:03:00.617Z,51.1
2019-02-27T02:04:13.064Z,51
2019-02-27T02:07:14.671Z,51.1
2019-02-27T02:08:45.187Z,51.1
2019-02-27T02:11:46.021Z,51.1
2019-02-27T02:13:16.721Z,51.1
2019-02-27T02:17:48.259Z,51.1
2019-02-27T02:19:01.300Z,51.1
2019-02-27T02:23:15.372Z,51.1
2019-02-27T02:27:46.089Z,51.1
2019-02-27T02:30:47.091Z,51.1
2019-02-27T02:32:18.042Z,51.1
2019-02-27T02:35:01.981Z,51.1
2019-02-27T02:36:15.009Z,51
2019-02-27T02:37:45.521Z,51
2019-02-27T02:40:46.549Z,51
2019-02-27T02:42:17.054Z,50.9
2019-02-27T02:45:18.084Z,51
2019-02-27T02:51:02.651Z,50.9
2019-02-27T02:52:15.680Z,51
2019-02-27T02:55:16.710Z,50.9
2019-02-27T02:56:47.212Z,50.9
2019-02-27T02:59:48.239Z,51
2019-02-27T03:01:18.751Z,51
2019-02-27T03:02:49.026Z,51
2019-02-27T03:04:19.779Z,51
2019-02-27T03:05:50.285Z,51.1
2019-02-27T03:09:46.868Z,51.1
2019-02-27T03:11:17.378Z,51.1
2019-02-27T03:15:48.922Z,51.1
2019-02-27T03:20:20.462Z,51.1
2019-02-27T03:23:04.007Z,51.2
2019-02-27T03:24:17.041Z,51.2
2019-02-27T03:25:47.552Z,51.2
2019-02-27T03:28:48.577Z,51.2
2019-02-27T03:30:19.093Z,51.2
2019-02-27T03:33:20.113Z,51.1
2019-02-27T03:34:50.062Z,51.1
2019-02-27T03:37:51.658Z,51.2
2019-02-27T03:39:04.690Z,51.2
2019-02-27T03:40:17.716Z,51.2
2019-02-27T03:43:18.076Z,51.1
2019-02-27T03:44:49.263Z,51.1
2019-02-27T03:47:50.290Z,51
2019-02-27T03:49:20.799Z,51
2019-02-27T03:52:21.817Z,51.1
2019-02-27T03:53:52.331Z,51.2
2019-02-27T03:55:05.036Z,51.2
2019-02-27T03:57:48.917Z,51.2
2019-02-27T03:59:19.042Z,51.2
2019-02-27T04:02:20.444Z,51.1
2019-02-27T04:03:50.968Z,51.1
2019-02-27T04:11:06.044Z,51.3
2019-02-27T04:12:19.084Z,51.3
2019-02-27T04:13:49.059Z,51.3
2019-02-27T04:16:50.614Z,51.3
2019-02-27T04:18:21.132Z,51.2
2019-02-27T04:22:52.670Z,51.3
2019-02-27T04:25:53.070Z,51.3
2019-02-27T04:28:19.761Z,51.3
2019-02-27T04:29:50.276Z,51.3
2019-02-27T04:31:20.794Z,51.4
2019-02-27T04:32:51.298Z,51.3
2019-02-27T04:35:52.326Z,51.2
2019-02-27T04:37:22.846Z,51.3
2019-02-27T04:40:23.864Z,51.2
2019-02-27T04:41:54.378Z,51.2
2019-02-27T04:43:07.409Z,51.2
2019-02-27T04:45:50.957Z,51.2
2019-02-27T04:47:21.477Z,51.2
2019-02-27T04:50:22.503Z,51.1
2019-02-27T04:51:53.001Z,51.2
2019-02-27T04:54:54.074Z,51.1
2019-02-27T04:56:24.546Z,51.1
2019-02-27T05:00:21.132Z,51.1
2019-02-27T05:01:51.637Z,51.1
2019-02-27T05:04:52.665Z,51.1
2019-02-27T05:06:23.203Z,51.1
2019-02-27T05:10:54.718Z,51.1
2019-02-27T05:13:55.074Z,51.1
2019-02-27T05:15:08.780Z,51.2
2019-02-27T05:20:53.347Z,51.1
2019-02-27T05:23:54.376Z,51.1
2019-02-27T05:28:25.917Z,51.1
2019-02-27T05:29:56.431Z,51.1
2019-02-27T05:31:09.464Z,51.1
2019-02-27T05:33:53.001Z,51.1
2019-02-27T05:35:23.051Z,51
2019-02-27T05:38:24.547Z,51
2019-02-27T05:39:55.057Z,51.1
2019-02-27T05:42:56.080Z,51
2019-02-27T05:48:23.181Z,51
2019-02-27T05:49:53.691Z,50.9
2019-02-27T05:52:54.716Z,51
2019-02-27T05:57:26.258Z,51
2019-02-27T06:01:57.800Z,51
2019-02-27T06:03:10.830Z,51
2019-02-27T06:04:23.863Z,51.1
2019-02-27T06:05:54.037Z,51.1
2019-02-27T06:07:24.884Z,51.1
2019-02-27T06:08:55.394Z,51.2
2019-02-27T06:13:26.940Z,51.1
2019-02-27T06:14:57.455Z,51.1
2019-02-27T06:16:27.965Z,51
2019-02-27T06:19:11.515Z,50.8
2019-02-27T06:20:24.549Z,50.7
2019-02-27T06:21:55.006Z,50.6
2019-02-27T08:07:53.000Z,49.9
2019-02-27T08:09:05.000Z,48.2
2019-02-27T08:11:59.000Z,50.9
2019-02-27T09:33:45.000Z,35
2019-02-27T09:44:58.000Z,34.6
2019-02-27T09:48:28.878Z,34.6
2019-02-27T09:59:11.000Z,35
2019-02-27T09:59:17.000Z,35
2019-02-27T10:00:21.000Z,34.5
2019-02-27T10:01:34.430Z,34.6
2019-02-27T10:07:26.000Z,34.2
2019-02-27T10:08:39.000Z,34.5
2019-02-27T10:09:51.000Z,35
2019-02-27T10:11:03.000Z,35.3
2019-02-27T10:13:28.000Z,35.4
2019-02-27T10:14:40.000Z,35.5
2019-02-27T11:06:28.724Z,23.4
2019-02-27T11:07:40.918Z,23.7
2019-02-27T11:13:52.000Z,22.7
2019-02-27T11:13:52.546Z,22.7
2019-02-27T11:15:04.732Z,22
2019-02-27T11:16:16.922Z,21.6
2019-02-27T12:25:41.000Z,25.1
2019-02-27T12:49:41.000Z,23.9
2019-02-27T12:50:54.058Z,14.8
2019-02-27T12:52:06.000Z,14.9
2019-02-27T12:53:18.721Z,14.7
2019-02-27T12:54:31.058Z,14.5
2019-02-27T12:55:43.385Z,14.4
2019-02-27T12:56:55.725Z,14.5
2019-02-27T12:58:08.051Z,14.7
2019-02-27T12:59:20.387Z,15
2019-02-27T13:00:32.720Z,15.3
2019-02-27T13:01:45.116Z,15.2
2019-02-27T13:02:57.398Z,15.1
2019-02-27T13:04:09.724Z,14.9
2019-02-27T13:05:22.049Z,15.2
2019-02-27T13:06:33.000Z,15.4
2019-02-27T13:07:46.738Z,15.8
2019-02-27T13:08:59.057Z,16.1
2019-02-27T13:10:11.039Z,16.4
2019-02-27T13:11:23.739Z,16.8
2019-02-27T13:12:36.130Z,16.5
2019-02-27T13:13:48.655Z,17.3
2019-02-27T13:15:00.720Z,17.6
2019-02-27T13:16:13.116Z,17.6
2019-02-27T13:17:25.391Z,17.3
2019-02-27T13:18:37.726Z,17.1
2019-02-27T13:19:50.062Z,17.1
2019-02-27T13:21:01.000Z,17.5
2019-02-27T13:22:14.727Z,17.5
2019-02-27T13:23:27.070Z,17.5
2019-02-27T13:24:39.394Z,17.2
2019-02-27T13:25:51.725Z,17.8
2019-02-27T13:27:04.066Z,17.6
2019-02-27T13:28:16.397Z,17.5
2019-02-27T13:29:28.744Z,17.3
2019-02-27T13:30:41.063Z,17.6
2019-02-27T13:31:53.402Z,17.9
2019-02-27T13:33:05.000Z,18.2
2019-02-27T13:34:18.066Z,18.3
2019-02-27T13:35:30.397Z,18.5
2019-02-27T13:36:42.073Z,18.6
2019-02-27T13:37:55.069Z,18.3
2019-02-27T13:39:07.397Z,18.2
2019-02-27T13:40:19.742Z,17.7
2019-02-27T13:41:32.064Z,17.5
2019-02-27T13:42:44.406Z,17.4
2019-02-27T13:43:56.736Z,17.2
2019-02-27T13:45:09.080Z,17.9
2019-02-27T13:46:21.406Z,18
2019-02-27T13:47:33.744Z,17.9
2019-02-27T13:48:46.074Z,17.9
2019-02-27T13:49:58.040Z,18.2
2019-02-27T13:51:10.743Z,17.7
2019-02-27T13:52:23.074Z,17.3
2019-02-27T13:53:35.409Z,16.1
2019-02-27T13:54:47.745Z,15.8
2019-02-27T13:56:00.076Z,15.9
2019-02-27T13:57:12.040Z,15.6
2019-02-27T13:58:24.748Z,15.1
2019-02-27T13:59:36.000Z,15.2
2019-02-27T14:00:49.411Z,15.5
2019-02-27T14:02:01.752Z,15.2
2019-02-27T14:03:14.000Z,15.4
2019-02-27T14:04:26.415Z,15.5
2019-02-27T14:05:38.745Z,15.6
2019-02-27T14:06:51.079Z,15.9
2019-02-27T14:08:03.424Z,16.4
2019-02-27T14:09:15.748Z,16.9
2019-02-27T14:10:28.084Z,17.2
2019-02-27T14:11:40.423Z,17.4
2019-02-27T14:12:52.075Z,17.1
2019-02-27T14:14:05.084Z,17
2019-02-27T14:15:17.419Z,16.5
2019-02-27T14:16:29.746Z,16.3
2019-02-27T14:17:42.084Z,16.5
2019-02-27T14:18:54.427Z,16.7
2019-02-27T14:20:06.747Z,17
2019-02-27T14:21:18.000Z,17
2019-02-27T14:22:31.425Z,16.5
2019-02-27T14:23:42.000Z,16.7
2019-02-27T14:24:55.000Z,16.5
2019-02-27T14:26:08.424Z,16.7
2019-02-27T14:27:20.755Z,16.7
2019-02-27T14:28:33.089Z,16.9
2019-02-27T14:29:45.426Z,17
2019-02-27T14:30:57.755Z,17
2019-02-27T14:32:09.000Z,16.7
2019-02-27T14:33:22.454Z,16.7
2019-02-27T14:34:34.758Z,16.7
2019-02-27T14:35:47.087Z,16.6
2019-02-27T14:36:59.423Z,16.6
2019-02-27T14:38:11.760Z,16.6
2019-02-27T14:39:24.095Z,16.6
2019-02-27T14:40:36.426Z,16.7
2019-02-27T14:41:48.774Z,16.8
2019-02-27T14:43:01.101Z,17.1
2019-02-27T14:44:13.431Z,17.2
2019-02-27T14:45:24.000Z,17.6
2019-02-27T14:46:38.096Z,18.1
2019-02-27T14:47:50.043Z,18.7
2019-02-27T14:49:02.763Z,18.8
2019-02-27T14:50:15.100Z,19.1
2019-02-27T14:51:27.431Z,19.3
2019-02-27T14:52:39.769Z,19.4
2019-02-27T14:53:52.104Z,19.8
2019-02-27T14:55:04.439Z,19.6
2019-02-27T14:56:16.000Z,20
2019-02-27T14:57:29.010Z,19.7
2019-02-27T14:58:41.440Z,19.6
2019-02-27T14:59:53.773Z,19.7
2019-02-27T15:01:06.103Z,19.7
2019-02-27T15:02:18.440Z,19.8
2019-02-27T15:03:30.772Z,19.9
2019-02-27T15:04:43.103Z,20
2019-02-27T15:05:55.439Z,20
2019-02-27T15:07:07.773Z,20.3
2019-02-27T15:08:19.000Z,20.4
2019-02-27T15:09:31.000Z,20.7
2019-02-27T15:10:44.777Z,20.8
2019-02-27T15:11:57.106Z,20.9
2019-02-27T15:13:09.044Z,21.1
2019-02-27T15:14:21.775Z,20.8
2019-02-27T15:15:34.110Z,20.7
2019-02-27T15:16:46.448Z,20.8
2019-02-27T15:17:58.776Z,20.7
2019-02-27T15:19:11.113Z,20.9
2019-02-27T15:20:23.443Z,20.9
2019-02-27T15:21:35.776Z,20.9
2019-02-27T15:22:48.108Z,21.4
2019-02-27T15:24:00.044Z,21.4
2019-02-27T15:25:12.078Z,21.7
2019-02-27T15:26:24.000Z,22.3
2019-02-27T15:27:37.442Z,22.6
2019-02-27T15:28:49.784Z,23
2019-02-27T15:30:02.118Z,23
2019-02-27T15:31:14.000Z,23.3
2019-02-27T15:32:26.781Z,23.6
2019-02-27T15:33:38.000Z,23.8
2019-02-27T15:34:51.451Z,23.9
2019-02-27T15:36:03.781Z,23.5
2019-02-27T15:37:16.118Z,23.7
2019-02-27T15:38:28.452Z,23.8
2019-02-27T15:39:40.784Z,23.8
2019-02-27T15:40:53.119Z,23.8
2019-02-27T15:42:05.453Z,24
2019-02-27T15:43:17.786Z,24.1
2019-02-27T15:44:30.118Z,24.4
2019-02-27T15:45:42.452Z,24.3
2019-02-27T15:46:54.784Z,24.5
2019-02-27T15:48:07.012Z,24.6
2019-02-27T15:49:19.045Z,24.7
2019-02-27T15:50:31.791Z,24.6
2019-02-27T15:51:44.120Z,24.8
2019-02-27T15:52:56.460Z,25.1
2019-02-27T15:54:08.788Z,25
2019-02-27T15:55:20.000Z,25.3
2019-02-27T15:56:33.456Z,25.4
2019-02-27T15:57:45.787Z,25.4
2019-02-27T15:58:58.134Z,25.6
2019-02-27T16:00:10.461Z,25.6
2019-02-27T16:01:22.790Z,25.6
2019-02-27T16:02:35.127Z,25.7
2019-02-27T16:03:47.004Z,25.6
2019-02-27T16:04:59.794Z,25.5
2019-02-27T16:06:12.181Z,25.8
2019-02-27T16:07:24.458Z,26.1
2019-02-27T16:08:36.791Z,26.2
2019-02-27T16:09:49.125Z,26.4
2019-02-27T16:11:01.463Z,26.5
2019-02-27T16:12:13.800Z,26.5
2019-02-27T16:13:26.128Z,26.7
2019-02-27T16:14:38.466Z,26.7
2019-02-27T16:15:50.797Z,26.9
2019-02-27T16:17:03.133Z,26.8
2019-02-27T16:18:15.467Z,27
2019-02-27T16:19:27.803Z,27.1
2019-02-27T16:20:40.139Z,27.2
2019-02-27T16:21:52.471Z,27.6
2019-02-27T16:23:04.801Z,27.7
2019-02-27T16:24:17.134Z,28
2019-02-27T16:25:29.474Z,27.8
2019-02-27T16:26:41.804Z,28.1
2019-02-27T16:27:54.000Z,28.3
2019-02-27T16:29:06.470Z,28.8
2019-02-27T16:30:18.805Z,28.9
2019-02-27T16:31:31.138Z,29.1
2019-02-27T16:32:42.000Z,29.4
2019-02-27T16:33:55.080Z,29.5
2019-02-27T16:35:08.146Z,29.5
2019-02-27T16:36:20.469Z,29.8
2019-02-27T16:37:32.811Z,29.8
2019-02-27T16:38:44.000Z,29.8
2019-02-27T16:39:57.483Z,29.9
2019-02-27T16:41:09.805Z,30
2019-02-27T16:42:22.134Z,30.2
2019-02-27T16:43:34.477Z,30.4
2019-02-27T16:44:46.810Z,30.6
2019-02-27T16:45:59.142Z,31.1
2019-02-27T16:47:11.471Z,31.1
2019-02-27T16:48:23.818Z,31.3
2019-02-27T16:49:36.146Z,31.3
2019-02-27T16:50:48.047Z,31.6
2019-02-27T16:52:00.819Z,31.6
2019-02-27T16:53:12.000Z,31.3
2019-02-27T16:54:25.480Z,31.7
2019-02-27T16:55:37.810Z,31.5
2019-02-27T16:56:50.140Z,31.6
2019-02-27T16:58:02.478Z,31.6
2019-02-27T16:59:14.081Z,31.9
2019-02-27T17:00:27.144Z,32.4
2019-02-27T17:01:39.479Z,32.6
2019-02-27T17:02:51.811Z,33.4
2019-02-27T17:04:04.152Z,33.7
2019-02-27T17:05:16.488Z,33.4
2019-02-27T17:06:28.816Z,33
2019-02-27T17:07:41.151Z,33.2
2019-02-27T17:08:53.481Z,33.4
2019-02-27T17:10:04.000Z,33.1
2019-02-27T17:11:18.148Z,33.4
2019-02-27T17:12:30.486Z,32.6
2019-02-27T17:13:42.000Z,32.6
2019-02-27T17:14:55.153Z,32.4
2019-02-27T17:16:07.486Z,32.3
2019-02-27T17:17:19.819Z,32.5
2019-02-27T17:18:32.001Z,32.5
2019-02-27T17:19:44.492Z,33.2
2019-02-27T17:20:56.844Z,32.2
2019-02-27T17:22:09.016Z,31.9
2019-02-27T17:23:21.491Z,32.6
2019-02-27T17:24:33.828Z,32.4
2019-02-27T17:25:46.016Z,32.9
2019-02-27T17:26:58.495Z,32.6
2019-02-27T17:28:10.833Z,32.8
2019-02-27T17:29:23.163Z,33.2
2019-02-27T17:30:35.497Z,33.4
2019-02-27T17:31:47.831Z,32.5
2019-02-27T17:33:00.165Z,32.6
2019-02-27T17:34:12.496Z,33
2019-02-27T17:35:24.839Z,32.3
2019-02-27T17:36:37.167Z,32.9
2019-02-27T17:37:49.503Z,32.2
2019-02-27T17:39:01.832Z,31.8
2019-02-27T17:40:14.172Z,32.1
2019-02-27T17:41:26.513Z,31.5
2019-02-27T17:42:38.899Z,31.3
2019-02-27T17:43:51.190Z,31.3
2019-02-27T17:45:03.509Z,31.6
2019-02-27T17:46:15.840Z,31.3
2019-02-27T17:47:28.017Z,31.5
2019-02-27T17:48:40.547Z,32.9
2019-02-27T17:49:52.085Z,31.6
2019-02-27T17:51:05.179Z,32
2019-02-27T17:52:17.512Z,31.9
2019-02-27T17:53:29.846Z,32.1
2019-02-27T17:54:42.182Z,31.6
2019-02-27T17:55:54.515Z,31.6
2019-02-27T17:57:06.850Z,32.1
2019-02-27T17:58:19.180Z,31.6
2019-02-27T17:59:31.521Z,31.6
2019-02-27T18:00:43.855Z,31.5
2019-02-27T18:01:56.186Z,32.6
2019-02-27T18:03:08.522Z,32.1
2019-02-27T18:04:20.853Z,32.1
2019-02-27T18:05:33.189Z,31.9
2019-02-27T18:06:45.520Z,31.9
2019-02-27T18:07:57.860Z,32.2
2019-02-27T18:09:10.193Z,32.5
2019-02-27T18:10:22.522Z,32.1
2019-02-27T18:11:34.863Z,32.3
2019-02-27T18:12:47.199Z,32.6
2019-02-27T18:13:59.528Z,32.7
2019-02-27T18:15:11.862Z,32.6
2019-02-27T18:16:24.195Z,32.6
2019-02-27T18:17:36.530Z,33.3
2019-02-27T18:18:48.869Z,33.4
2019-02-27T18:20:01.222Z,33.6
2019-02-27T18:21:13.533Z,33.8
2019-02-27T18:22:25.000Z,33.9
2019-02-27T18:23:38.209Z,34.2
2019-02-27T18:24:50.537Z,34.4
2019-02-27T18:26:02.878Z,34.2
2019-02-27T18:27:15.215Z,34.2
2019-02-27T18:28:27.535Z,34.4
2019-02-27T18:29:39.887Z,34.9
2019-02-27T18:30:52.212Z,35
2019-02-27T18:32:04.551Z,35.1
2019-02-27T18:33:16.883Z,35
2019-02-27T18:34:29.217Z,35.2
2019-02-27T18:35:41.552Z,35.5
2019-02-27T18:36:53.880Z,35.1
2019-02-27T18:38:06.224Z,35.3
2019-02-27T18:39:18.550Z,35.4
2019-02-27T18:40:30.890Z,35.6
2019-02-27T18:41:43.222Z,35.8
2019-02-27T18:42:55.662Z,36.1
2019-02-27T18:44:07.887Z,35.9
2019-02-27T18:45:20.221Z,36.3
2019-02-27T18:46:32.550Z,35.7
2019-02-27T18:47:44.896Z,36.1
2019-02-27T18:48:57.223Z,35.8
2019-02-27T18:50:09.557Z,35.5
2019-02-27T18:51:21.089Z,35.6
2019-02-27T18:52:34.022Z,35.6
2019-02-27T18:53:46.561Z,35.7
2019-02-27T18:54:58.896Z,35.6
2019-02-27T18:56:11.228Z,36.2
2019-02-27T18:57:23.561Z,35.8
2019-02-27T18:58:35.896Z,36
2019-02-27T18:59:48.000Z,35.7
2019-02-27T19:01:00.056Z,36.5
2019-02-27T19:02:12.089Z,35.5
2019-02-27T19:03:25.237Z,36
2019-02-27T19:04:37.572Z,35.6
2019-02-27T19:05:49.906Z,35.9
2019-02-27T19:07:02.234Z,36.1
2019-02-27T19:08:14.573Z,36.1
2019-02-27T19:09:26.903Z,35.9
2019-02-27T19:10:39.238Z,36.4
2019-02-27T19:11:51.579Z,36.1
2019-02-27T19:13:03.915Z,36.2
2019-02-27T19:14:16.247Z,36.1
2019-02-27T19:15:28.580Z,36.2
2019-02-27T19:16:40.915Z,35.9
2019-02-27T19:17:53.250Z,36.1
2019-02-27T19:19:05.000Z,36.5
2019-02-27T19:20:17.919Z,36.2
2019-02-27T19:21:30.253Z,35.4
2019-02-27T19:22:42.596Z,36
2019-02-27T19:23:54.926Z,35.8
2019-02-27T19:25:07.266Z,35.8
2019-02-27T19:26:19.597Z,36.1
2019-02-27T19:27:30.000Z,36.3
2019-02-27T19:28:44.258Z,36.3
2019-02-27T19:29:56.595Z,36.6
2019-02-27T19:31:08.934Z,36.6
2019-02-27T19:32:21.259Z,36.6
2019-02-27T19:33:33.599Z,36.7
2019-02-27T19:34:45.930Z,36.9
2019-02-27T19:35:58.266Z,36.5
2019-02-27T19:37:10.059Z,36.9
2019-02-27T19:38:22.933Z,36.8
2019-02-27T19:39:35.269Z,36.7
2019-02-27T19:40:47.601Z,37
2019-02-27T19:41:59.932Z,36.5
2019-02-27T19:43:12.270Z,36.7
2019-02-27T19:44:24.602Z,36.6
2019-02-27T19:45:36.943Z,36.9
2019-02-27T19:46:49.276Z,36.9
2019-02-27T19:48:01.613Z,36.7
2019-02-27T19:49:13.094Z,36.6
2019-02-27T19:50:26.279Z,36.5
2019-02-27T19:51:38.615Z,36.4
2019-02-27T19:52:50.942Z,36.9
2019-02-27T19:54:03.280Z,36.7
2019-02-27T19:55:15.615Z,37.1
2019-02-27T19:56:26.000Z,37.1
2019-02-27T19:57:40.285Z,36.9
2019-02-27T19:58:52.615Z,36.6
2019-02-27T20:00:04.957Z,36.4
2019-02-27T20:01:17.029Z,36.5
2019-02-27T20:02:29.627Z,36.6
2019-02-27T20:03:41.959Z,36.9
2019-02-27T20:04:54.293Z,36.5
2019-02-27T20:06:06.632Z,36.8
2019-02-27T20:07:18.963Z,36.5
2019-02-27T20:08:31.302Z,36.8
2019-02-27T20:09:43.659Z,36.6
2019-02-27T20:10:55.009Z,37
2019-02-27T20:12:08.030Z,36.9
2019-02-27T20:13:20.641Z,36.8
2019-02-27T20:14:32.971Z,36.9
2019-02-27T20:15:45.309Z,36.8
2019-02-27T20:16:57.064Z,37.4
2019-02-27T20:18:09.979Z,36.9
2019-02-27T20:19:22.312Z,37.2
2019-02-27T20:20:34.645Z,37.8
2019-02-27T20:21:46.991Z,37.2
2019-02-27T20:22:58.000Z,37.3
2019-02-27T20:24:11.649Z,37.6
2019-02-27T20:25:23.982Z,37.6
2019-02-27T20:26:36.312Z,37.5
2019-02-27T20:27:48.649Z,37.2
2019-02-27T20:29:00.990Z,37.1
2019-02-27T20:30:13.321Z,38
2019-02-27T20:31:25.655Z,37.9
2019-02-27T20:32:38.008Z,38
2019-02-27T20:33:50.335Z,38.3
2019-02-27T20:35:02.664Z,38.6
2019-02-27T20:36:14.997Z,38.6
2019-02-27T20:37:27.333Z,39.1
2019-02-27T20:38:39.000Z,38.7
2019-02-27T20:39:51.998Z,39
2019-02-27T20:41:04.335Z,39.5
2019-02-27T20:42:16.669Z,39.9
2019-02-27T20:43:28.000Z,40.3
2019-02-27T20:44:41.332Z,39.9
2019-02-27T20:45:53.666Z,40
2019-02-27T20:47:04.000Z,39.8
2019-02-27T20:48:18.340Z,39.5
2019-02-27T20:49:30.673Z,39.3
2019-02-27T20:50:43.001Z,39.1
2019-02-27T20:51:55.342Z,39.3
2019-02-27T20:53:07.675Z,39.8
2019-02-27T20:54:20.008Z,39.7
2019-02-27T20:55:32.346Z,40.1
2019-02-27T20:56:44.067Z,40.2
2019-02-27T20:57:57.016Z,40.7
2019-02-27T20:59:09.349Z,39.9
2019-02-27T21:00:21.685Z,40
2019-02-27T21:01:34.020Z,39.7
2019-02-27T21:02:45.000Z,39.4
2019-02-27T21:03:58.690Z,40
2019-02-27T21:05:11.040Z,39.6
2019-02-27T21:06:23.421Z,39.4
2019-02-27T21:07:35.693Z,38.6
2019-02-27T21:08:48.002Z,38.6
2019-02-27T21:10:00.364Z,39.5
2019-02-27T21:11:12.698Z,38.8
2019-02-27T21:12:25.039Z,38.8
2019-02-27T21:13:37.373Z,39.1
2019-02-27T21:14:49.702Z,38.4
2019-02-27T21:16:02.038Z,39.3
2019-02-27T21:17:14.372Z,38.4
2019-02-27T21:18:26.706Z,38.1
2019-02-27T21:19:39.036Z,38.5
2019-02-27T21:20:51.377Z,37.8
2019-02-27T21:22:03.712Z,37.5
2019-02-27T21:23:16.051Z,37.8
2019-02-27T21:24:28.376Z,37.5
2019-02-27T21:25:40.071Z,37.5
2019-02-27T21:26:53.048Z,37.7
2019-02-27T21:28:05.381Z,37.3
2019-02-27T21:29:17.719Z,37.5
2019-02-27T21:30:30.050Z,37.6
2019-02-27T21:31:42.388Z,37.3
2019-02-27T21:32:54.718Z,37.2
2019-02-27T21:34:07.059Z,37.2
2019-02-27T21:35:19.417Z,37.2
2019-02-27T21:36:31.972Z,37.3
2019-02-27T21:37:44.007Z,37.2
2019-02-27T21:38:56.000Z,37.6
2019-02-27T21:40:08.751Z,37.3
2019-02-27T21:41:21.062Z,37.5
2019-02-27T21:42:33.412Z,37.3
2019-02-27T21:43:45.736Z,37.1
2019-02-27T21:44:58.070Z,37.5
2019-02-27T21:46:10.404Z,37.8
2019-02-27T21:47:22.730Z,38
2019-02-27T21:48:35.068Z,37.9
2019-02-27T21:49:47.403Z,37.8
2019-02-27T21:50:59.738Z,37.9
2019-02-27T21:52:12.075Z,38
2019-02-27T21:53:24.410Z,38.3
2019-02-27T21:54:36.737Z,38.1
2019-02-27T21:55:49.000Z,38
2019-02-27T21:57:00.000Z,38
2019-02-27T21:58:13.747Z,37.9
2019-02-27T21:59:25.000Z,38.1
2019-02-27T22:00:38.000Z,37.9
2019-02-27T22:01:50.749Z,38.2
2019-02-27T22:03:03.089Z,38.3
2019-02-27T22:04:15.429Z,38.3
2019-02-27T22:05:27.000Z,38.7
2019-02-27T22:06:40.091Z,38.5
2019-02-27T22:07:52.422Z,38.3
2019-02-27T22:09:04.753Z,38.4
2019-02-27T22:10:17.091Z,37.9
2019-02-27T22:11:29.426Z,37.6
2019-02-27T22:12:41.761Z,37.7
2019-02-27T22:13:54.095Z,37.3
2019-02-27T22:15:06.426Z,37.5
2019-02-27T22:16:18.760Z,37.2
2019-02-27T22:17:31.009Z,37.3
2019-02-27T22:18:43.433Z,37.3
2019-02-27T22:19:55.773Z,37.3
2019-02-27T22:21:08.109Z,37.8
2019-02-27T22:22:20.437Z,37.5
2019-02-27T22:23:32.000Z,37.7
2019-02-27T22:24:45.101Z,38
2019-02-27T22:25:57.436Z,38.2
2019-02-27T22:27:09.771Z,38.2
2019-02-27T22:28:22.099Z,38.5
2019-02-27T22:29:34.044Z,38.6
2019-02-27T22:30:46.761Z,38.5
2019-02-27T22:31:59.096Z,38.5
2019-02-27T22:33:11.042Z,38.6
2019-02-27T22:34:23.000Z,38.7
2019-02-27T22:35:36.009Z,38.9
2019-02-27T22:36:48.042Z,38.9
2019-02-27T22:38:00.754Z,38.8
2019-02-27T22:39:13.094Z,38.8
2019-02-27T22:40:25.042Z,38.9
2019-02-27T22:41:37.075Z,38.7
2019-02-27T22:42:50.098Z,38.7
2019-02-27T22:44:02.422Z,38.8
2019-02-27T22:45:14.751Z,38.8
2019-02-27T22:46:27.097Z,38.8
2019-02-27T22:47:38.000Z,39
2019-02-27T22:48:51.746Z,38.9
2019-02-27T22:50:04.101Z,39
2019-02-27T22:51:16.411Z,39.2
2019-02-27T22:52:28.000Z,39.4
2019-02-27T22:53:41.087Z,39.4
2019-02-27T22:54:53.411Z,39.5
2019-02-27T22:56:05.748Z,39.6
2019-02-27T22:57:18.076Z,39.6
2019-02-27T22:58:29.000Z,39.6
2019-02-27T22:59:42.740Z,39.5
2019-02-27T23:00:55.074Z,39.5
2019-02-27T23:02:07.400Z,39.5
2019-02-27T23:03:19.000Z,39.4
2019-02-27T23:04:31.000Z,39.5
2019-02-27T23:05:44.397Z,39.6
2019-02-27T23:06:56.728Z,39.5
2019-02-27T23:08:09.069Z,39.6
2019-02-27T23:09:21.394Z,39.8
2019-02-27T23:10:33.735Z,39.8
2019-02-27T23:11:46.065Z,40
2019-02-27T23:12:58.390Z,40.2
2019-02-27T23:14:10.073Z,40.4
2019-02-27T23:15:23.057Z,40.6
2019-02-27T23:16:35.385Z,40.5
2019-02-27T23:17:47.723Z,40.5
2019-02-27T23:19:00.060Z,40.5
2019-02-27T23:20:12.386Z,40.5
2019-02-27T23:21:24.719Z,40.5
2019-02-27T23:22:37.055Z,40.5
2019-02-27T23:23:49.380Z,40.5
2019-02-27T23:25:01.718Z,40.5
2019-02-27T23:26:14.004Z,40.7
2019-02-27T23:27:26.381Z,40.6
2019-02-27T23:28:38.715Z,40.6
2019-02-27T23:29:51.038Z,40.6
2019-02-27T23:31:03.375Z,40.6
2019-02-27T23:32:15.071Z,40.7
2019-02-27T23:33:28.039Z,41
2019-02-27T23:34:40.369Z,41.1
2019-02-27T23:35:52.070Z,41.2
2019-02-27T23:37:04.000Z,41.4
2019-02-27T23:38:17.000Z,41.5
2019-02-27T23:39:29.695Z,41.5
2019-02-27T23:40:42.031Z,41.7
2019-02-27T23:41:54.361Z,41.5
2019-02-27T23:43:06.701Z,41.5
2019-02-27T23:44:19.021Z,41.6
2019-02-27T23:45:31.357Z,41.5
2019-02-27T23:46:43.000Z,41.5
2019-02-27T23:47:55.000Z,41.5
2019-02-27T23:49:08.352Z,41.6
2019-02-27T23:50:20.687Z,41.7
2019-02-27T23:51:33.020Z,41.8
2019-02-27T23:52:45.357Z,42
2019-02-27T23:53:57.069Z,42
2019-02-27T23:55:10.015Z,42.3
2019-02-27T23:56:22.364Z,42.1
2019-02-27T23:57:34.683Z,42
2019-02-27T23:58:47.013Z,42.3
2019-02-27T23:59:58.000Z,42
